Time;durP1;ratioP1;P1;durP2;ratioP2;P2;SDS_P1;SDS_P2;PMS_P1;PMS_P2;Temp;Humidity;BMP_temperature;BMP_pressure;BME280_temperature;BME280_humidity;BME280_pressure;Samples;Min_cycle;Max_cycle;Signal;HPM_P1;HPM_P2
2021/12/30 00:00:33;;;;;;;46.42;8.93;;;;;;;;;;4968038;28;20507;-80
2021/12/30 00:02:59;;;;;;;50.55;8.80;;;;;;;;;;4970239;28;20070;-80
2021/12/30 00:05:25;;;;;;;39.63;8.75;;;;;;;;;;4971868;28;20078;-80
2021/12/30 00:07:51;;;;;;;44.35;8.88;;;;;;;;;;4970482;28;20089;-80
2021/12/30 00:10:17;;;;;;;49.55;9.52;;;;;;;;;;4969525;28;20054;-80
2021/12/30 00:12:43;;;;;;;50.20;10.13;;;;;;;;;;4968837;28;20053;-81
2021/12/30 00:15:10;;;;;;;49.10;9.32;;;;;;;;;;4969923;28;20058;-80
2021/12/30 00:17:36;;;;;;;51.60;8.93;;;;;;;;;;4970071;28;20073;-80
2021/12/30 00:20:04;;;;;;;44.20;8.77;;;;;;;;;;4970997;28;20089;-80
2021/12/30 00:22:30;;;;;;;39.13;8.20;;;;;;;;;;4969981;28;20553;-81
2021/12/30 00:24:56;;;;;;;55.03;9.73;;;;;;;;;;4970084;28;20039;-80
2021/12/30 00:27:22;;;;;;;38.58;8.27;;;;;;;;;;4969406;28;20521;-80
2021/12/30 00:29:48;;;;;;;43.13;8.75;;;;;;;;;;4966225;28;20039;-80
2021/12/30 00:32:14;;;;;;;39.72;8.02;;;;;;;;;;4979051;28;20059;-81
2021/12/30 00:34:40;;;;;;;40.55;8.23;;;;;;;;;;4963412;28;20506;-80
2021/12/30 00:37:06;;;;;;;38.95;7.82;;;;;;;;;;4969904;28;20050;-80
2021/12/30 00:39:32;;;;;;;43.50;8.57;;;;;;;;;;4968290;28;20077;-80
2021/12/30 00:41:58;;;;;;;46.80;8.65;;;;;;;;;;4969002;28;20053;-80
2021/12/30 00:44:24;;;;;;;52.88;10.40;;;;;;;;;;4968738;28;20054;-81
2021/12/30 00:46:50;;;;;;;46.22;11.57;;;;;;;;;;4966852;28;20043;-80
2021/12/30 00:49:16;;;;;;;36.40;10.48;;;;;;;;;;4969342;28;20104;-80
2021/12/30 00:51:43;;;;;;;43.85;11.45;;;;;;;;;;4965662;28;20113;-80
2021/12/30 00:54:09;;;;;;;40.47;10.70;;;;;;;;;;4967449;28;20065;-81
2021/12/30 00:56:35;;;;;;;41.58;10.80;;;;;;;;;;4964609;28;20046;-80
2021/12/30 00:59:01;;;;;;;40.65;8.07;;;;;;;;;;4968470;28;20495;-81
2021/12/30 01:01:27;;;;;;;42.00;8.63;;;;;;;;;;4970130;28;20411;-80
2021/12/30 01:03:53;;;;;;;51.60;9.38;;;;;;;;;;4968889;28;20062;-79
2021/12/30 01:06:19;;;;;;;45.67;8.63;;;;;;;;;;4965707;28;20565;-80
2021/12/30 01:08:46;;;;;;;41.58;9.15;;;;;;;;;;4965628;28;20081;-80
2021/12/30 01:11:12;;;;;;;38.70;8.82;;;;;;;;;;4968942;28;20039;-80
2021/12/30 01:13:42;;;;;;;39.70;8.63;;;;;;;;;;4967501;28;20043;-80
2021/12/30 01:16:17;;;;;;;41.35;8.40;;;;;;;;;;4969011;28;20054;-80
2021/12/30 01:21:29;;;;;;;35.50;7.70;;;;;;;;;;4970874;28;20486;-80
2021/12/30 01:23:56;;;;;;;37.60;8.15;;;;;;;;;;4966844;28;20043;-81
2021/12/30 01:26:22;;;;;;;38.55;7.70;;;;;;;;;;4969511;28;20486;-80
2021/12/30 01:28:49;;;;;;;35.33;7.40;;;;;;;;;;4965863;28;20047;-81
2021/12/30 01:31:15;;;;;;;33.80;7.32;;;;;;;;;;4969998;28;20043;-80
2021/12/30 01:33:43;;;;;;;43.88;7.93;;;;;;;;;;4968044;28;20085;-80
2021/12/30 01:36:09;;;;;;;38.08;8.38;;;;;;;;;;4968363;28;20121;-80
2021/12/30 01:38:35;;;;;;;41.40;8.25;;;;;;;;;;4964641;28;20094;-81
2021/12/30 01:41:01;;;;;;;38.45;8.52;;;;;;;;;;4965191;28;20046;-80
2021/12/30 01:43:28;;;;;;;31.65;6.55;;;;;;;;;;4968537;28;20081;-80
2021/12/30 01:45:55;;;;;;;34.85;8.02;;;;;;;;;;4968521;28;20101;-81
2021/12/30 01:48:21;;;;;;;39.25;7.47;;;;;;;;;;4968846;28;20054;-80
2021/12/30 01:50:48;;;;;;;44.45;7.90;;;;;;;;;;4968101;28;20502;-81
2021/12/30 01:53:14;;;;;;;38.40;7.70;;;;;;;;;;4969280;28;20050;-81
2021/12/30 01:55:40;;;;;;;37.42;7.63;;;;;;;;;;4966853;28;20055;-80
2021/12/30 01:58:07;;;;;;;28.90;8.02;;;;;;;;;;4968319;28;20526;-80
2021/12/30 02:00:35;;;;;;;43.85;7.97;;;;;;;;;;4968237;28;20089;-80
2021/12/30 02:03:01;;;;;;;39.53;8.70;;;;;;;;;;4971305;28;20478;-80
2021/12/30 02:05:28;;;;;;;38.17;7.38;;;;;;;;;;4967075;28;20108;-80
2021/12/30 02:07:54;;;;;;;40.13;8.02;;;;;;;;;;4971576;28;20046;-80
2021/12/30 02:10:20;;;;;;;27.98;7.10;;;;;;;;;;4970621;28;20497;-80
2021/12/30 02:12:46;;;;;;;39.47;7.95;;;;;;;;;;4972704;28;20261;-81
2021/12/30 02:15:14;;;;;;;40.83;8.25;;;;;;;;;;4972082;28;20050;-80
2021/12/30 02:17:40;;;;;;;43.72;9.50;;;;;;;;;;4972424;28;20042;-81
2021/12/30 02:20:12;;;;;;;45.80;8.07;;;;;;;;;;4973914;28;20043;-81
2021/12/30 02:22:38;;;;;;;60.38;10.90;;;;;;;;;;4972417;28;20043;-81
2021/12/30 02:25:05;;;;;;;45.85;8.77;;;;;;;;;;4972600;28;20130;-81
2021/12/30 02:27:31;;;;;;;46.40;9.32;;;;;;;;;;4972340;28;20042;-81
2021/12/30 02:29:57;;;;;;;42.42;9.15;;;;;;;;;;4974823;28;20053;-81
2021/12/30 02:32:25;;;;;;;50.13;9.80;;;;;;;;;;4971965;28;20056;-81
2021/12/30 02:34:51;;;;;;;40.22;8.75;;;;;;;;;;4973401;28;20066;-81
2021/12/30 02:37:18;;;;;;;42.35;8.60;;;;;;;;;;4969170;28;20035;-81
2021/12/30 02:39:49;;;;;;;51.25;8.95;;;;;;;;;;4971892;28;20097;-81
2021/12/30 02:42:15;;;;;;;50.70;9.85;;;;;;;;;;4971209;28;20074;-81
2021/12/30 02:44:41;;;;;;;45.30;9.65;;;;;;;;;;4967865;28;20053;-81
2021/12/30 02:47:07;;;;;;;36.50;9.25;;;;;;;;;;4971874;28;20039;-81
2021/12/30 02:49:33;;;;;;;45.90;9.48;;;;;;;;;;4968491;28;20089;-81
2021/12/30 02:51:59;;;;;;;42.70;8.70;;;;;;;;;;4971599;28;20054;-81
2021/12/30 02:54:25;;;;;;;38.90;9.05;;;;;;;;;;4968400;28;20053;-80
2021/12/30 02:56:51;;;;;;;46.55;8.82;;;;;;;;;;4970133;28;20050;-81
2021/12/30 02:59:19;;;;;;;44.15;9.45;;;;;;;;;;4971354;28;20113;-81
2021/12/30 03:01:46;;;;;;;47.40;9.52;;;;;;;;;;4971010;28;20053;-81
2021/12/30 03:04:12;;;;;;;44.75;8.88;;;;;;;;;;4966062;28;20141;-81
2021/12/30 03:06:38;;;;;;;54.42;11.85;;;;;;;;;;4969803;28;20047;-81
2021/12/30 03:09:05;;;;;;;42.33;8.80;;;;;;;;;;4978038;28;20147;-81
2021/12/30 03:11:31;;;;;;;38.75;8.40;;;;;;;;;;4977311;28;20038;-81
2021/12/30 03:13:58;;;;;;;45.33;8.18;;;;;;;;;;4971954;28;20051;-81
2021/12/30 03:16:26;;;;;;;36.72;8.52;;;;;;;;;;4969108;28;20050;-82
2021/12/30 03:18:52;;;;;;;40.97;8.75;;;;;;;;;;4969899;28;20058;-81
2021/12/30 03:21:19;;;;;;;36.65;8.15;;;;;;;;;;4971981;28;20462;-81
2021/12/30 03:23:46;;;;;;;41.20;8.35;;;;;;;;;;4967052;28;20423;-81
2021/12/30 03:26:12;;;;;;;43.08;8.93;;;;;;;;;;4968394;28;20046;-81
2021/12/30 03:28:40;;;;;;;37.38;8.98;;;;;;;;;;4970225;28;20053;-82
2021/12/30 03:31:06;;;;;;;42.55;8.80;;;;;;;;;;4970331;28;20067;-82
2021/12/30 03:33:32;;;;;;;42.55;9.15;;;;;;;;;;4971184;28;20113;-82
2021/12/30 03:35:59;;;;;;;36.03;8.10;;;;;;;;;;4971640;28;20062;-81
2021/12/30 03:38:29;;;;;;;38.70;8.63;;;;;;;;;;4969935;28;20614;-82
2021/12/30 03:40:55;;;;;;;50.20;8.40;;;;;;;;;;4970993;28;20519;-81
2021/12/30 03:43:21;;;;;;;41.85;8.52;;;;;;;;;;4968824;28;20057;-82
2021/12/30 03:45:47;;;;;;;39.78;8.98;;;;;;;;;;4972391;28;20038;-81
2021/12/30 03:48:13;;;;;;;39.88;8.85;;;;;;;;;;4970516;28;20534;-81
2021/12/30 03:50:43;;;;;;;40.22;9.02;;;;;;;;;;4969745;28;20046;-81
2021/12/30 03:53:10;;;;;;;47.40;9.70;;;;;;;;;;4969904;28;20058;-81
2021/12/30 03:55:36;;;;;;;48.90;9.52;;;;;;;;;;4970926;28;20074;-81
2021/12/30 03:58:02;;;;;;;46.05;10.00;;;;;;;;;;4972452;28;20061;-80
2021/12/30 04:00:28;;;;;;;57.13;9.95;;;;;;;;;;4968709;28;20062;-81
2021/12/30 04:02:55;;;;;;;44.60;10.10;;;;;;;;;;4971027;28;20054;-81
2021/12/30 04:05:21;;;;;;;40.00;9.57;;;;;;;;;;4966407;28;20047;-81
2021/12/30 04:07:47;;;;;;;49.75;9.82;;;;;;;;;;4970392;28;20250;-81
2021/12/30 04:10:14;;;;;;;47.15;9.82;;;;;;;;;;4967460;28;20055;-81
2021/12/30 04:12:41;;;;;;;47.38;9.43;;;;;;;;;;4967422;28;20430;-81
2021/12/30 04:15:07;;;;;;;47.05;10.27;;;;;;;;;;4969435;28;20486;-81
2021/12/30 04:17:33;;;;;;;53.00;11.65;;;;;;;;;;4969599;28;20034;-81
2021/12/30 04:19:59;;;;;;;52.60;10.77;;;;;;;;;;4972137;28;20101;-81
2021/12/30 04:22:25;;;;;;;49.80;10.77;;;;;;;;;;4969618;28;20042;-81
2021/12/30 04:24:52;;;;;;;56.85;13.07;;;;;;;;;;4970460;28;20051;-81
2021/12/30 04:27:18;;;;;;;51.10;10.38;;;;;;;;;;4969897;28;20566;-82
2021/12/30 04:29:44;;;;;;;57.28;10.32;;;;;;;;;;4970811;28;20050;-81
2021/12/30 04:32:10;;;;;;;60.13;11.55;;;;;;;;;;4968344;28;20058;-81
2021/12/30 04:34:36;;;;;;;51.45;10.57;;;;;;;;;;4970188;28;20042;-82
2021/12/30 04:37:02;;;;;;;47.13;10.18;;;;;;;;;;4971128;28;20039;-81
2021/12/30 04:39:31;;;;;;;66.22;10.75;;;;;;;;;;4982963;28;20832;-81
2021/12/30 04:42:04;;;;;;;47.08;9.85;;;;;;;;;;4985935;28;20050;-81
2021/12/30 04:44:30;;;;;;;51.70;10.20;;;;;;;;;;4985230;28;20055;-81
2021/12/30 04:46:56;;;;;;;53.15;10.15;;;;;;;;;;4970716;28;20053;-81
2021/12/30 04:49:22;;;;;;;48.42;9.27;;;;;;;;;;4968791;28;20130;-81
2021/12/30 04:51:48;;;;;;;50.50;10.27;;;;;;;;;;4968980;28;20062;-81
2021/12/30 04:54:14;;;;;;;56.22;10.13;;;;;;;;;;4966871;28;20129;-81
2021/12/30 04:56:41;;;;;;;47.53;10.77;;;;;;;;;;4968315;28;20125;-81
2021/12/30 04:59:07;;;;;;;39.35;9.48;;;;;;;;;;4968537;28;20133;-81
2021/12/30 05:01:33;;;;;;;58.72;9.98;;;;;;;;;;4972914;28;20062;-80
2021/12/30 05:03:59;;;;;;;48.95;10.40;;;;;;;;;;4972311;28;20557;-81
2021/12/30 05:06:25;;;;;;;51.92;10.88;;;;;;;;;;4968974;28;20054;-81
2021/12/30 05:08:51;;;;;;;46.33;10.30;;;;;;;;;;4968983;28;20133;-81
2021/12/30 05:11:17;;;;;;;58.05;12.23;;;;;;;;;;4972160;28;20043;-80
2021/12/30 05:13:43;;;;;;;54.40;11.98;;;;;;;;;;4966902;28;20050;-81
2021/12/30 05:16:09;;;;;;;53.88;10.73;;;;;;;;;;4967852;28;20496;-81
2021/12/30 05:18:36;;;;;;;46.33;11.13;;;;;;;;;;4966527;28;20042;-81
2021/12/30 05:21:03;;;;;;;51.67;11.88;;;;;;;;;;4970882;28;20561;-81
2021/12/30 05:23:30;;;;;;;49.90;12.30;;;;;;;;;;4967650;28;20047;-81
2021/12/30 05:25:56;;;;;;;49.00;10.90;;;;;;;;;;4968913;28;20050;-80
2021/12/30 05:28:22;;;;;;;48.95;11.73;;;;;;;;;;4969157;28;20075;-81
2021/12/30 05:30:48;;;;;;;50.25;10.85;;;;;;;;;;4970473;28;20050;-81
2021/12/30 05:33:15;;;;;;;43.58;11.13;;;;;;;;;;4970400;28;20141;-81
2021/12/30 05:35:41;;;;;;;35.50;9.40;;;;;;;;;;4968074;28;20070;-81
2021/12/30 05:38:07;;;;;;;51.10;11.05;;;;;;;;;;4967149;28;20054;-80
2021/12/30 05:40:33;;;;;;;54.80;10.90;;;;;;;;;;4969818;28;20089;-81
2021/12/30 05:42:59;;;;;;;64.43;11.75;;;;;;;;;;4971818;28;20055;-80
2021/12/30 05:45:26;;;;;;;59.80;11.07;;;;;;;;;;4969746;28;20050;-80
2021/12/30 05:47:53;;;;;;;50.30;11.95;;;;;;;;;;4964117;28;20475;-81
2021/12/30 05:50:24;;;;;;;46.22;11.10;;;;;;;;;;4966214;28;20050;-80
2021/12/30 05:52:50;;;;;;;33.58;10.23;;;;;;;;;;4965975;28;20066;-80
2021/12/30 05:55:17;;;;;;;44.88;11.13;;;;;;;;;;4970359;28;20047;-80
2021/12/30 05:57:43;;;;;;;35.22;11.02;;;;;;;;;;4967281;28;20067;-81
2021/12/30 06:00:11;;;;;;;37.95;10.77;;;;;;;;;;4965271;28;20054;-81
2021/12/30 06:02:37;;;;;;;34.53;10.77;;;;;;;;;;4967900;28;20074;-80
2021/12/30 06:05:04;;;;;;;32.60;10.45;;;;;;;;;;4968368;28;20050;-80
2021/12/30 06:07:30;;;;;;;33.40;10.80;;;;;;;;;;4966393;28;20061;-80
2021/12/30 06:09:56;;;;;;;30.45;10.73;;;;;;;;;;4970697;28;20054;-80
2021/12/30 06:12:22;;;;;;;31.55;10.93;;;;;;;;;;4966889;28;20058;-80
2021/12/30 06:14:48;;;;;;;33.05;10.63;;;;;;;;;;4968917;28;20039;-80
2021/12/30 06:17:15;;;;;;;33.25;10.85;;;;;;;;;;4967283;28;20050;-80
2021/12/30 06:19:42;;;;;;;32.38;10.32;;;;;;;;;;4965652;28;20105;-80
2021/12/30 06:22:09;;;;;;;34.08;10.25;;;;;;;;;;4966795;28;20055;-80
2021/12/30 06:24:35;;;;;;;28.33;9.57;;;;;;;;;;4966333;28;20502;-80
2021/12/30 06:27:01;;;;;;;30.95;9.68;;;;;;;;;;4966539;28;20105;-80
2021/12/30 06:29:27;;;;;;;28.80;9.63;;;;;;;;;;4967475;28;20121;-80
2021/12/30 06:31:53;;;;;;;28.40;9.25;;;;;;;;;;4964895;28;20074;-80
2021/12/30 06:34:19;;;;;;;33.20;9.55;;;;;;;;;;4969183;28;20042;-80
2021/12/30 06:36:45;;;;;;;24.92;8.77;;;;;;;;;;4973306;28;20090;-79
2021/12/30 06:39:11;;;;;;;31.60;7.70;;;;;;;;;;4962897;28;20108;-80
2021/12/30 06:41:37;;;;;;;26.75;8.07;;;;;;;;;;4970346;28;20045;-80
2021/12/30 06:44:03;;;;;;;29.33;7.65;;;;;;;;;;4969091;28;20046;-80
2021/12/30 06:46:29;;;;;;;29.38;7.70;;;;;;;;;;4969741;28;20089;-80
2021/12/30 06:48:55;;;;;;;30.65;7.07;;;;;;;;;;4967132;28;20458;-79
2021/12/30 06:51:23;;;;;;;24.95;6.78;;;;;;;;;;4968364;28;20058;-81
2021/12/30 06:53:51;;;;;;;21.60;6.65;;;;;;;;;;4965310;28;20105;-80
2021/12/30 06:56:19;;;;;;;20.25;6.32;;;;;;;;;;4971567;28;20117;-80
2021/12/30 06:58:45;;;;;;;21.40;7.03;;;;;;;;;;4987464;28;20066;-80
2021/12/30 07:01:11;;;;;;;26.02;6.97;;;;;;;;;;4970484;28;20051;-80
2021/12/30 07:03:37;;;;;;;16.50;6.43;;;;;;;;;;4971054;28;20431;-80
2021/12/30 07:06:03;;;;;;;25.38;7.50;;;;;;;;;;4970674;28;20039;-80
2021/12/30 07:08:29;;;;;;;22.27;6.70;;;;;;;;;;4972132;28;20046;-80
2021/12/30 07:10:55;;;;;;;25.27;6.72;;;;;;;;;;4968517;28;20042;-80
2021/12/30 07:13:21;;;;;;;26.25;6.68;;;;;;;;;;4970827;28;20452;-80
2021/12/30 07:15:47;;;;;;;20.10;5.93;;;;;;;;;;4972862;28;20490;-80
2021/12/30 07:18:13;;;;;;;29.70;7.60;;;;;;;;;;4970763;28;20126;-80
2021/12/30 07:20:39;;;;;;;24.15;5.68;;;;;;;;;;4968478;28;20051;-80
2021/12/30 07:23:05;;;;;;;25.30;5.97;;;;;;;;;;4967120;28;20057;-80
2021/12/30 07:25:31;;;;;;;27.73;6.40;;;;;;;;;;4973181;28;20051;-80
2021/12/30 07:27:57;;;;;;;26.13;6.30;;;;;;;;;;4972135;28;20035;-81
2021/12/30 07:30:25;;;;;;;23.45;5.28;;;;;;;;;;4970427;28;20400;-81
2021/12/30 07:32:51;;;;;;;27.40;6.53;;;;;;;;;;4972457;28;20046;-81
2021/12/30 07:35:17;;;;;;;26.08;5.93;;;;;;;;;;4971689;28;20645;-81
2021/12/30 07:37:44;;;;;;;28.13;7.22;;;;;;;;;;4971394;28;20112;-81
2021/12/30 07:40:10;;;;;;;28.38;6.85;;;;;;;;;;4972707;28;20408;-81
2021/12/30 07:42:37;;;;;;;32.22;7.57;;;;;;;;;;4970273;28;20031;-80
2021/12/30 07:45:04;;;;;;;34.65;7.72;;;;;;;;;;4972811;28;20513;-81
2021/12/30 07:47:30;;;;;;;28.60;6.70;;;;;;;;;;4971412;28;20055;-81
2021/12/30 07:49:56;;;;;;;30.42;7.03;;;;;;;;;;4974267;28;20051;-80
2021/12/30 07:52:22;;;;;;;35.08;6.68;;;;;;;;;;4972596;28;20406;-80
2021/12/30 07:54:48;;;;;;;38.60;7.97;;;;;;;;;;4973157;28;20545;-80
2021/12/30 07:57:21;;;;;;;30.70;6.50;;;;;;;;;;4970112;28;20050;-80
2021/12/30 07:59:47;;;;;;;38.17;8.02;;;;;;;;;;4974596;28;20090;-80
2021/12/30 08:02:14;;;;;;;28.70;6.35;;;;;;;;;;4966801;28;20181;-80
2021/12/30 08:04:40;;;;;;;38.20;7.97;;;;;;;;;;4970295;28;20077;-81
2021/12/30 08:07:09;;;;;;;39.22;7.50;;;;;;;;;;4968909;28;20086;-80
2021/12/30 08:09:35;;;;;;;36.70;6.75;;;;;;;;;;4971605;28;20546;-84
2021/12/30 08:12:01;;;;;;;25.50;6.65;;;;;;;;;;4970272;28;20050;-82
2021/12/30 08:14:28;;;;;;;29.33;6.65;;;;;;;;;;4971567;28;20121;-81
2021/12/30 08:16:54;;;;;;;27.75;6.43;;;;;;;;;;4970225;28;20038;-82
2021/12/30 08:19:20;;;;;;;36.00;7.75;;;;;;;;;;4971226;28;20081;-77
2021/12/30 08:21:46;;;;;;;36.60;8.25;;;;;;;;;;4974250;28;20046;-84
2021/12/30 08:24:12;;;;;;;39.90;7.95;;;;;;;;;;4966368;28;20050;-71
2021/12/30 08:26:39;;;;;;;37.92;7.47;;;;;;;;;;4970086;28;20058;-76
2021/12/30 08:29:05;;;;;;;38.60;6.80;;;;;;;;;;4971332;28;20046;-76
2021/12/30 08:31:33;;;;;;;43.33;7.05;;;;;;;;;;4970737;28;20047;-76
2021/12/30 08:33:59;;;;;;;30.02;6.07;;;;;;;;;;4972854;28;20065;-76
2021/12/30 08:36:25;;;;;;;33.33;6.05;;;;;;;;;;4971561;28;20038;-76
2021/12/30 08:38:51;;;;;;;26.35;5.80;;;;;;;;;;4970614;28;20046;-76
2021/12/30 08:41:17;;;;;;;29.92;6.25;;;;;;;;;;4970341;28;20533;-76
2021/12/30 08:43:43;;;;;;;32.25;5.82;;;;;;;;;;4971312;28;20054;-75
2021/12/30 08:46:09;;;;;;;26.65;5.43;;;;;;;;;;4973309;28;20066;-77
2021/12/30 08:48:37;;;;;;;30.13;5.93;;;;;;;;;;4970026;28;20508;-76
2021/12/30 08:51:03;;;;;;;24.50;5.75;;;;;;;;;;4974805;28;20046;-77
2021/12/30 08:53:29;;;;;;;26.00;6.03;;;;;;;;;;4975979;28;20077;-76
2021/12/30 08:55:55;;;;;;;23.83;5.28;;;;;;;;;;4986484;28;20058;-76
2021/12/30 08:58:21;;;;;;;24.02;5.95;;;;;;;;;;4968314;28;20059;-76
2021/12/30 09:00:48;;;;;;;30.48;5.80;;;;;;;;;;4987354;28;20054;-77
2021/12/30 09:03:14;;;;;;;33.17;6.78;;;;;;;;;;4971251;28;20073;-77
2021/12/30 09:05:41;;;;;;;24.50;5.53;;;;;;;;;;4967085;28;20125;-77
2021/12/30 09:08:07;;;;;;;31.60;5.95;;;;;;;;;;4968358;28;20561;-77
2021/12/30 09:10:37;;;;;;;31.42;6.10;;;;;;;;;;4969777;28;20046;-77
2021/12/30 09:13:03;;;;;;;33.10;5.85;;;;;;;;;;4970831;28;20089;-77
2021/12/30 09:15:29;;;;;;;31.70;6.13;;;;;;;;;;4967388;28;20099;-76
2021/12/30 09:17:56;;;;;;;31.15;6.28;;;;;;;;;;4987998;28;20075;-75
2021/12/30 09:20:22;;;;;;;30.35;5.80;;;;;;;;;;4969671;28;20051;-76
2021/12/30 09:22:49;;;;;;;36.00;6.32;;;;;;;;;;4969106;28;20046;-77
2021/12/30 09:25:17;;;;;;;27.83;5.43;;;;;;;;;;4974042;28;20101;-77
2021/12/30 09:27:43;;;;;;;32.97;6.07;;;;;;;;;;4965439;28;20105;-77
2021/12/30 09:30:13;;;;;;;31.38;7.50;;;;;;;;;;4969628;28;20051;-77
2021/12/30 09:32:40;;;;;;;34.83;5.88;;;;;;;;;;4970355;28;20487;-77
2021/12/30 09:35:06;;;;;;;33.70;7.05;;;;;;;;;;4971555;28;20053;-77
2021/12/30 09:37:32;;;;;;;38.28;11.18;;;;;;;;;;4969220;28;20080;-77
2021/12/30 09:39:59;;;;;;;29.20;6.10;;;;;;;;;;4973697;28;20074;-77
2021/12/30 09:42:26;;;;;;;30.52;6.95;;;;;;;;;;4974561;28;20038;-77
2021/12/30 09:44:53;;;;;;;27.15;5.40;;;;;;;;;;4967104;28;20050;-78
2021/12/30 09:47:19;;;;;;;30.02;6.38;;;;;;;;;;4969307;28;20051;-77
2021/12/30 09:49:45;;;;;;;28.77;6.80;;;;;;;;;;4966275;28;20088;-77
2021/12/30 09:52:11;;;;;;;30.25;6.53;;;;;;;;;;4966936;28;20063;-77
2021/12/30 09:54:37;;;;;;;33.88;6.80;;;;;;;;;;4968194;28;20043;-77
2021/12/30 09:57:04;;;;;;;27.38;7.15;;;;;;;;;;4968949;28;20147;-77
2021/12/30 09:59:31;;;;;;;35.78;6.68;;;;;;;;;;4969724;28;20109;-78
2021/12/30 10:01:58;;;;;;;30.25;6.43;;;;;;;;;;4974531;28;20446;-77
2021/12/30 10:04:29;;;;;;;28.13;6.10;;;;;;;;;;4970404;28;20367;-77
2021/12/30 10:06:56;;;;;;;35.35;6.53;;;;;;;;;;4968608;28;20099;-77
2021/12/30 10:09:29;;;;;;;30.70;7.97;;;;;;;;;;4969022;28;20139;-77
2021/12/30 10:12:01;;;;;;;;;;;;;;;;;;4967697;28;20055;-77
2021/12/30 10:14:28;;;;;;;25.25;6.68;;;;;;;;;;4967304;28;19930;-77
2021/12/30 10:17:14;;;;;;;35.22;7.10;;;;;;;;;;4969021;28;20046;-77
2021/12/30 10:19:40;;;;;;;36.13;7.70;;;;;;;;;;4965862;28;20491;-77
2021/12/30 10:22:13;;;;;;;37.88;8.07;;;;;;;;;;4968298;28;20051;-77
2021/12/30 10:24:40;;;;;;;42.55;8.02;;;;;;;;;;4962901;28;20058;-77
2021/12/30 10:27:06;;;;;;;39.42;8.38;;;;;;;;;;4968696;28;20067;-77
2021/12/30 10:29:42;;;;;;;39.83;8.73;;;;;;;;;;4969642;28;20042;-77
2021/12/30 10:32:21;;;;;;;43.78;8.70;;;;;;;;;;4969865;28;20118;-76
2021/12/30 10:35:06;;;;;;;50.05;10.00;;;;;;;;;;4979835;28;20053;-77
2021/12/30 10:37:33;;;;;;;43.00;8.45;;;;;;;;;;4971658;28;20073;-76
2021/12/30 10:39:59;;;;;;;40.88;8.98;;;;;;;;;;4971818;28;20042;-78
2021/12/30 10:42:29;;;;;;;44.10;8.73;;;;;;;;;;4971887;28;20392;-78
2021/12/30 10:44:55;;;;;;;36.63;9.00;;;;;;;;;;4970344;28;20050;-77
2021/12/30 10:47:23;;;;;;;39.13;8.80;;;;;;;;;;4969417;28;20050;-77
2021/12/30 10:49:57;;;;;;;52.70;9.65;;;;;;;;;;4971951;28;20050;-78
2021/12/30 10:52:23;;;;;;;50.28;10.48;;;;;;;;;;4971177;28;20062;-78
2021/12/30 10:54:49;;;;;;;48.33;10.30;;;;;;;;;;4967528;28;20051;-77
2021/12/30 10:57:15;;;;;;;49.72;10.50;;;;;;;;;;4969304;28;20211;-78
2021/12/30 10:59:43;;;;;;;49.03;9.38;;;;;;;;;;4972348;28;20406;-77
2021/12/30 11:02:15;;;;;;;49.28;10.55;;;;;;;;;;4972502;28;20407;-77
2021/12/30 11:04:53;;;;;;;43.75;9.90;;;;;;;;;;4973152;28;20118;-78
2021/12/30 11:07:24;;;;;;;50.03;9.50;;;;;;;;;;4966721;28;20046;-77
2021/12/30 11:09:55;;;;;;;47.00;11.52;;;;;;;;;;4983279;28;20047;-78
2021/12/30 11:12:26;;;;;;;45.25;10.40;;;;;;;;;;4966167;28;20133;-78
2021/12/30 11:14:53;;;;;;;51.10;11.35;;;;;;;;;;4971931;28;20054;-77
2021/12/30 11:17:23;;;;;;;45.08;9.95;;;;;;;;;;4969086;28;20129;-77
2021/12/30 11:20:01;;;;;;;44.50;10.68;;;;;;;;;;4971120;28;20054;-78
2021/12/30 11:22:28;;;;;;;46.10;10.60;;;;;;;;;;4975806;28;20133;-77
2021/12/30 11:24:56;;;;;;;47.35;10.60;;;;;;;;;;4974198;28;20109;-77
2021/12/30 11:27:23;;;;;;;47.90;10.93;;;;;;;;;;4969201;28;20050;-78
2021/12/30 11:29:52;;;;;;;49.08;10.05;;;;;;;;;;4972630;28;20125;-77
2021/12/30 11:32:19;;;;;;;43.72;9.40;;;;;;;;;;4969119;28;20061;-78
2021/12/30 11:34:48;;;;;;;51.03;10.55;;;;;;;;;;4972593;28;20069;-77
2021/12/30 11:37:15;;;;;;;45.53;9.23;;;;;;;;;;4972655;28;20502;-77
2021/12/30 11:39:48;;;;;;;47.30;9.73;;;;;;;;;;4971939;28;20045;-77
2021/12/30 11:42:22;;;;;;;42.70;11.32;;;;;;;;;;4970574;28;20061;-77
2021/12/30 11:45:00;;;;;;;40.55;9.63;;;;;;;;;;4970839;28;20093;-77
2021/12/30 11:47:32;;;;;;;38.10;8.65;;;;;;;;;;4969029;28;20057;-77
2021/12/30 11:50:01;;;;;;;40.95;9.25;;;;;;;;;;4967897;28;20482;-76
2021/12/30 11:52:46;;;;;;;47.00;9.82;;;;;;;;;;4970528;28;20065;-76
2021/12/30 11:55:31;;;;;;;37.78;9.15;;;;;;;;;;4970805;28;20050;-77
2021/12/30 11:58:16;;;;;;;36.75;10.05;;;;;;;;;;4968682;28;20055;-74
2021/12/30 12:00:43;;;;;;;40.10;8.68;;;;;;;;;;4968434;28;20403;-75
2021/12/30 12:03:27;;;;;;;45.95;9.52;;;;;;;;;;4970603;28;20138;-75
2021/12/30 12:05:54;;;;;;;44.42;11.57;;;;;;;;;;4967007;28;20398;-75
2021/12/30 12:08:20;;;;;;;41.60;8.43;;;;;;;;;;4970587;28;20478;-76
2021/12/30 12:11:05;;;;;;;39.75;7.93;;;;;;;;;;4973620;28;20065;-75
2021/12/30 12:13:32;;;;;;;34.78;8.40;;;;;;;;;;4983161;28;20050;-75
2021/12/30 12:15:59;;;;;;;35.22;7.75;;;;;;;;;;4987182;28;20125;-75
2021/12/30 12:18:25;;;;;;;32.92;8.57;;;;;;;;;;4971325;28;20042;-74
2021/12/30 12:20:52;;;;;;;33.63;6.95;;;;;;;;;;4966958;28;20043;-75
2021/12/30 12:23:31;;;;;;;24.02;7.05;;;;;;;;;;4972219;28;20054;-75
2021/12/30 12:26:07;;;;;;;30.52;7.47;;;;;;;;;;4967079;28;20050;-75
2021/12/30 12:28:33;;;;;;;30.92;7.43;;;;;;;;;;4972402;28;20129;-75
2021/12/30 12:30:59;;;;;;;38.35;8.25;;;;;;;;;;4969143;28;20050;-75
2021/12/30 12:33:27;;;;;;;26.42;7.03;;;;;;;;;;4973148;28;20089;-75
2021/12/30 12:35:53;;;;;;;30.83;6.75;;;;;;;;;;4970967;28;20046;-75
2021/12/30 12:38:37;;;;;;;33.72;7.45;;;;;;;;;;4968955;28;20134;-75
2021/12/30 12:41:15;;;;;;;30.02;7.30;;;;;;;;;;4966038;28;20101;-75
2021/12/30 12:43:41;;;;;;;40.22;8.70;;;;;;;;;;4985892;28;20050;-75
2021/12/30 12:46:07;;;;;;;36.92;8.13;;;;;;;;;;4973073;28;20042;-75
2021/12/30 12:48:35;;;;;;;32.08;7.50;;;;;;;;;;4969993;28;20460;-75
2021/12/30 12:51:04;;;;;;;30.77;7.10;;;;;;;;;;4968740;28;20085;-75
2021/12/30 12:53:33;;;;;;;38.70;8.55;;;;;;;;;;4968752;28;20058;-75
2021/12/30 12:56:19;;;;;;;28.98;6.57;;;;;;;;;;4967705;28;20054;-75
2021/12/30 12:58:47;;;;;;;27.88;7.63;;;;;;;;;;4968873;28;20058;-75
2021/12/30 13:01:18;;;;;;;36.45;9.20;;;;;;;;;;4986592;28;20495;-75
2021/12/30 13:03:44;;;;;;;38.67;7.68;;;;;;;;;;4962445;28;20050;-74
2021/12/30 13:06:12;;;;;;;26.30;7.60;;;;;;;;;;4971342;28;20099;-74
2021/12/30 13:08:41;;;;;;;40.05;8.20;;;;;;;;;;4967872;28;20050;-74
2021/12/30 13:11:08;;;;;;;45.70;8.60;;;;;;;;;;4966870;28;20054;-74
2021/12/30 13:13:36;;;;;;;42.55;9.05;;;;;;;;;;4967309;28;20043;-73
2021/12/30 13:16:07;;;;;;;38.05;8.73;;;;;;;;;;4975596;28;20050;-74
2021/12/30 13:18:33;;;;;;;40.42;7.97;;;;;;;;;;4969681;28;20046;-74
2021/12/30 13:21:13;;;;;;;39.20;8.50;;;;;;;;;;4966148;28;20050;-74
2021/12/30 13:23:39;;;;;;;32.25;7.15;;;;;;;;;;4970558;28;20054;-74
2021/12/30 13:26:07;;;;;;;40.03;8.82;;;;;;;;;;4968435;28;20035;-74
2021/12/30 13:28:44;;;;;;;39.05;8.68;;;;;;;;;;4965951;28;20042;-75
2021/12/30 13:31:13;;;;;;;36.35;7.90;;;;;;;;;;4969356;28;20104;-75
2021/12/30 13:33:50;;;;;;;36.60;8.70;;;;;;;;;;4970281;28;20515;-75
2021/12/30 13:36:17;;;;;;;39.40;9.23;;;;;;;;;;4968661;28;20101;-75
2021/12/30 13:38:44;;;;;;;39.53;8.00;;;;;;;;;;4970314;28;20066;-75
2021/12/30 13:41:14;;;;;;;37.55;8.10;;;;;;;;;;4964289;28;20100;-75
2021/12/30 13:43:40;;;;;;;41.72;9.18;;;;;;;;;;4967328;28;20725;-75
2021/12/30 13:46:06;;;;;;;37.28;9.35;;;;;;;;;;4965447;28;20624;-75
2021/12/30 13:48:41;;;;;;;36.70;7.72;;;;;;;;;;4967677;28;20126;-75
2021/12/30 13:51:15;;;;;;;37.25;9.10;;;;;;;;;;4967622;28;20082;-74
2021/12/30 13:53:41;;;;;;;29.70;8.65;;;;;;;;;;4970319;28;20117;-75
2021/12/30 13:56:10;;;;;;;42.80;8.77;;;;;;;;;;4969555;28;20105;-74
2021/12/30 13:58:41;;;;;;;30.95;8.32;;;;;;;;;;4967253;28;20070;-75
2021/12/30 14:01:09;;;;;;;36.20;8.88;;;;;;;;;;4969497;28;20046;-76
2021/12/30 14:03:42;;;;;;;32.20;8.55;;;;;;;;;;4968496;28;20557;-75
2021/12/30 14:06:17;;;;;;;42.25;9.52;;;;;;;;;;4968932;28;20081;-75
2021/12/30 14:08:49;;;;;;;43.50;12.27;;;;;;;;;;4965054;28;20109;-76
2021/12/30 14:11:15;;;;;;;44.80;8.50;;;;;;;;;;4968907;28;20042;-74
2021/12/30 14:13:42;;;;;;;36.05;7.75;;;;;;;;;;4971028;28;20046;-73
2021/12/30 14:16:09;;;;;;;41.03;9.27;;;;;;;;;;4969206;28;20054;-75
2021/12/30 14:18:36;;;;;;;33.53;8.25;;;;;;;;;;4963787;28;20051;-75
2021/12/30 14:21:03;;;;;;;41.60;8.95;;;;;;;;;;4967572;28;20501;-74
2021/12/30 14:23:30;;;;;;;32.75;8.68;;;;;;;;;;4969188;28;20057;-75
2021/12/30 14:25:56;;;;;;;39.72;7.70;;;;;;;;;;4967575;28;20038;-74
2021/12/30 14:28:24;;;;;;;31.60;7.93;;;;;;;;;;4966646;28;20057;-75
2021/12/30 14:30:51;;;;;;;35.20;8.48;;;;;;;;;;4971277;28;20569;-75
2021/12/30 14:33:25;;;;;;;38.20;8.70;;;;;;;;;;4969155;28;20042;-74